sensor_id;sensor_type;location;lat;lon;timestamp;P1;durP1;ratioP1;P2;durP2;ratioP2
36257;SDS011;22294;52.044;4.582;2023-02-28T00:00:49;3.35;;;1.95;;
36257;SDS011;22294;52.044;4.582;2023-02-28T00:03:15;5.22;;;2.42;;
36257;SDS011;22294;52.044;4.582;2023-02-28T00:05:40;6.05;;;2.35;;
36257;SDS011;22294;52.044;4.582;2023-02-28T00:08:06;5.18;;;2.35;;
36257;SDS011;22294;52.044;4.582;2023-02-28T00:10:32;3.50;;;2.13;;
36257;SDS011;22294;52.044;4.582;2023-02-28T00:13:02;19.88;;;3.20;;
36257;SDS011;22294;52.044;4.582;2023-02-28T00:15:30;5.05;;;2.15;;
36257;SDS011;22294;52.044;4.582;2023-02-28T00:17:56;5.20;;;2.60;;
36257;SDS011;22294;52.044;4.582;2023-02-28T00:20:22;6.07;;;2.58;;
36257;SDS011;22294;52.044;4.582;2023-02-28T00:22:49;6.05;;;2.35;;
36257;SDS011;22294;52.044;4.582;2023-02-28T00:25:17;3.92;;;2.10;;
36257;SDS011;22294;52.044;4.582;2023-02-28T00:27:45;4.28;;;2.25;;
36257;SDS011;22294;52.044;4.582;2023-02-28T00:30:12;5.93;;;2.05;;
36257;SDS011;22294;52.044;4.582;2023-02-28T00:32:41;5.65;;;2.40;;
36257;SDS011;22294;52.044;4.582;2023-02-28T00:35:07;3.72;;;2.53;;
36257;SDS011;22294;52.044;4.582;2023-02-28T00:37:33;6.18;;;1.98;;
36257;SDS011;22294;52.044;4.582;2023-02-28T00:39:59;5.28;;;2.20;;
36257;SDS011;22294;52.044;4.582;2023-02-28T00:42:25;4.95;;;2.10;;
36257;SDS011;22294;52.044;4.582;2023-02-28T00:44:50;4.72;;;2.20;;
36257;SDS011;22294;52.044;4.582;2023-02-28T00:47:16;5.68;;;2.30;;
36257;SDS011;22294;52.044;4.582;2023-02-28T00:49:41;7.90;;;2.28;;
36257;SDS011;22294;52.044;4.582;2023-02-28T00:52:07;4.78;;;1.95;;
36257;SDS011;22294;52.044;4.582;2023-02-28T00:54:32;4.43;;;2.22;;
36257;SDS011;22294;52.044;4.582;2023-02-28T00:56:58;5.05;;;2.05;;
36257;SDS011;22294;52.044;4.582;2023-02-28T00:59:23;4.03;;;2.15;;
36257;SDS011;22294;52.044;4.582;2023-02-28T01:01:49;5.35;;;2.10;;
36257;SDS011;22294;52.044;4.582;2023-02-28T01:04:14;5.68;;;2.20;;
36257;SDS011;22294;52.044;4.582;2023-02-28T01:06:40;5.57;;;2.42;;
36257;SDS011;22294;52.044;4.582;2023-02-28T01:09:07;4.82;;;2.42;;
36257;SDS011;22294;52.044;4.582;2023-02-28T01:11:33;8.65;;;2.58;;
36257;SDS011;22294;52.044;4.582;2023-02-28T01:14:01;4.22;;;2.38;;
36257;SDS011;22294;52.044;4.582;2023-02-28T01:16:26;6.70;;;2.17;;
36257;SDS011;22294;52.044;4.582;2023-02-28T01:18:52;4.50;;;2.58;;
36257;SDS011;22294;52.044;4.582;2023-02-28T01:21:18;5.55;;;2.10;;
36257;SDS011;22294;52.044;4.582;2023-02-28T01:23:45;6.85;;;2.45;;
36257;SDS011;22294;52.044;4.582;2023-02-28T01:26:13;5.05;;;2.30;;
36257;SDS011;22294;52.044;4.582;2023-02-28T01:28:40;5.97;;;2.50;;
36257;SDS011;22294;52.044;4.582;2023-02-28T01:31:06;6.40;;;2.40;;
36257;SDS011;22294;52.044;4.582;2023-02-28T01:33:33;4.97;;;2.10;;
36257;SDS011;22294;52.044;4.582;2023-02-28T01:35:59;5.05;;;2.53;;
36257;SDS011;22294;52.044;4.582;2023-02-28T01:38:25;3.95;;;2.28;;
36257;SDS011;22294;52.044;4.582;2023-02-28T01:40:51;5.82;;;2.40;;
36257;SDS011;22294;52.044;4.582;2023-02-28T01:43:21;4.70;;;2.80;;
36257;SDS011;22294;52.044;4.582;2023-02-28T01:45:55;6.88;;;3.17;;
36257;SDS011;22294;52.044;4.582;2023-02-28T01:48:24;5.70;;;2.58;;
36257;SDS011;22294;52.044;4.582;2023-02-28T01:53:21;5.55;;;3.10;;
36257;SDS011;22294;52.044;4.582;2023-02-28T01:55:53;9.00;;;3.40;;
36257;SDS011;22294;52.044;4.582;2023-02-28T01:58:20;7.22;;;3.17;;
36257;SDS011;22294;52.044;4.582;2023-02-28T02:00:46;6.88;;;3.20;;
36257;SDS011;22294;52.044;4.582;2023-02-28T02:03:12;7.35;;;3.15;;
36257;SDS011;22294;52.044;4.582;2023-02-28T02:05:40;8.20;;;3.42;;
36257;SDS011;22294;52.044;4.582;2023-02-28T02:08:08;8.68;;;3.53;;
36257;SDS011;22294;52.044;4.582;2023-02-28T02:10:41;10.20;;;2.83;;
36257;SDS011;22294;52.044;4.582;2023-02-28T02:19:02;6.65;;;3.20;;
36257;SDS011;22294;52.044;4.582;2023-02-28T02:27:24;10.02;;;3.40;;
36257;SDS011;22294;52.044;4.582;2023-02-28T02:32:49;5.22;;;3.70;;
36257;SDS011;22294;52.044;4.582;2023-02-28T02:35:36;9.95;;;3.65;;
36257;SDS011;22294;52.044;4.582;2023-02-28T02:38:36;10.13;;;3.55;;
36257;SDS011;22294;52.044;4.582;2023-02-28T02:41:17;5.47;;;3.88;;
36257;SDS011;22294;52.044;4.582;2023-02-28T02:43:53;7.25;;;3.35;;
36257;SDS011;22294;52.044;4.582;2023-02-28T02:46:26;6.38;;;3.65;;
36257;SDS011;22294;52.044;4.582;2023-02-28T02:48:57;6.20;;;3.67;;
36257;SDS011;22294;52.044;4.582;2023-02-28T02:51:25;9.48;;;4.28;;
36257;SDS011;22294;52.044;4.582;2023-02-28T02:54:02;8.90;;;4.50;;
36257;SDS011;22294;52.044;4.582;2023-02-28T02:56:40;9.30;;;4.45;;
36257;SDS011;22294;52.044;4.582;2023-02-28T02:59:09;7.68;;;3.80;;
36257;SDS011;22294;52.044;4.582;2023-02-28T03:01:38;7.63;;;4.68;;
36257;SDS011;22294;52.044;4.582;2023-02-28T03:04:07;11.10;;;4.40;;
36257;SDS011;22294;52.044;4.582;2023-02-28T03:06:36;9.30;;;4.45;;
36257;SDS011;22294;52.044;4.582;2023-02-28T03:09:02;7.82;;;3.88;;
36257;SDS011;22294;52.044;4.582;2023-02-28T03:11:29;5.25;;;3.80;;
36257;SDS011;22294;52.044;4.582;2023-02-28T03:17:14;10.43;;;4.72;;
36257;SDS011;22294;52.044;4.582;2023-02-28T03:22:51;10.25;;;4.32;;
36257;SDS011;22294;52.044;4.582;2023-02-28T03:25:33;11.10;;;4.32;;
36257;SDS011;22294;52.044;4.582;2023-02-28T03:30:51;6.45;;;4.50;;
36257;SDS011;22294;52.044;4.582;2023-02-28T03:33:42;11.10;;;4.70;;
36257;SDS011;22294;52.044;4.582;2023-02-28T03:36:19;10.75;;;4.70;;
36257;SDS011;22294;52.044;4.582;2023-02-28T03:41:21;10.93;;;4.95;;
36257;SDS011;22294;52.044;4.582;2023-02-28T03:43:56;12.97;;;5.00;;
36257;SDS011;22294;52.044;4.582;2023-02-28T03:46:25;8.05;;;4.72;;
36257;SDS011;22294;52.044;4.582;2023-02-28T03:49:02;13.27;;;5.70;;
36257;SDS011;22294;52.044;4.582;2023-02-28T03:51:33;11.02;;;5.03;;
36257;SDS011;22294;52.044;4.582;2023-02-28T03:54:02;10.80;;;5.32;;
36257;SDS011;22294;52.044;4.582;2023-02-28T03:56:39;7.90;;;5.50;;
36257;SDS011;22294;52.044;4.582;2023-02-28T03:59:13;10.98;;;5.13;;
36257;SDS011;22294;52.044;4.582;2023-02-28T04:01:47;9.00;;;4.95;;
36257;SDS011;22294;52.044;4.582;2023-02-28T04:04:13;9.02;;;5.25;;
36257;SDS011;22294;52.044;4.582;2023-02-28T04:06:40;7.53;;;4.70;;
36257;SDS011;22294;52.044;4.582;2023-02-28T04:09:07;9.07;;;5.20;;
36257;SDS011;22294;52.044;4.582;2023-02-28T04:11:35;8.40;;;4.93;;
36257;SDS011;22294;52.044;4.582;2023-02-28T04:14:04;10.38;;;5.32;;
36257;SDS011;22294;52.044;4.582;2023-02-28T04:16:31;11.93;;;5.32;;
36257;SDS011;22294;52.044;4.582;2023-02-28T04:18:57;8.32;;;5.03;;
36257;SDS011;22294;52.044;4.582;2023-02-28T04:21:34;10.93;;;4.80;;
36257;SDS011;22294;52.044;4.582;2023-02-28T04:24:02;7.78;;;4.47;;
36257;SDS011;22294;52.044;4.582;2023-02-28T04:26:32;9.15;;;5.10;;
36257;SDS011;22294;52.044;4.582;2023-02-28T04:28:58;12.52;;;4.95;;
36257;SDS011;22294;52.044;4.582;2023-02-28T04:31:24;9.75;;;4.88;;
36257;SDS011;22294;52.044;4.582;2023-02-28T04:33:49;11.40;;;4.60;;
36257;SDS011;22294;52.044;4.582;2023-02-28T04:36:15;10.80;;;5.05;;
36257;SDS011;22294;52.044;4.582;2023-02-28T04:38:42;10.07;;;4.45;;
36257;SDS011;22294;52.044;4.582;2023-02-28T04:41:08;11.98;;;5.55;;
36257;SDS011;22294;52.044;4.582;2023-02-28T04:43:34;9.35;;;4.55;;
36257;SDS011;22294;52.044;4.582;2023-02-28T04:46:01;9.07;;;5.07;;
36257;SDS011;22294;52.044;4.582;2023-02-28T04:48:28;7.10;;;4.32;;
36257;SDS011;22294;52.044;4.582;2023-02-28T04:50:55;8.20;;;4.75;;
36257;SDS011;22294;52.044;4.582;2023-02-28T04:55:52;7.13;;;4.20;;
36257;SDS011;22294;52.044;4.582;2023-02-28T04:58:17;8.95;;;4.70;;
36257;SDS011;22294;52.044;4.582;2023-02-28T05:00:42;9.95;;;4.90;;
36257;SDS011;22294;52.044;4.582;2023-02-28T05:03:07;8.35;;;5.47;;
36257;SDS011;22294;52.044;4.582;2023-02-28T05:05:33;9.52;;;6.13;;
36257;SDS011;22294;52.044;4.582;2023-02-28T05:07:59;9.38;;;5.32;;
36257;SDS011;22294;52.044;4.582;2023-02-28T05:10:25;7.75;;;5.10;;
36257;SDS011;22294;52.044;4.582;2023-02-28T05:12:51;10.93;;;4.88;;
36257;SDS011;22294;52.044;4.582;2023-02-28T05:15:18;11.70;;;5.50;;
36257;SDS011;22294;52.044;4.582;2023-02-28T05:17:43;12.65;;;5.70;;
36257;SDS011;22294;52.044;4.582;2023-02-28T05:20:09;7.88;;;5.55;;
36257;SDS011;22294;52.044;4.582;2023-02-28T05:22:43;13.32;;;5.35;;
36257;SDS011;22294;52.044;4.582;2023-02-28T05:25:12;9.45;;;5.68;;
36257;SDS011;22294;52.044;4.582;2023-02-28T05:27:40;12.25;;;6.13;;
36257;SDS011;22294;52.044;4.582;2023-02-28T05:30:06;10.00;;;5.07;;
36257;SDS011;22294;52.044;4.582;2023-02-28T05:32:35;9.60;;;5.40;;
36257;SDS011;22294;52.044;4.582;2023-02-28T05:35:08;10.55;;;6.10;;
36257;SDS011;22294;52.044;4.582;2023-02-28T05:37:34;9.88;;;6.05;;
36257;SDS011;22294;52.044;4.582;2023-02-28T05:40:00;14.75;;;6.32;;
36257;SDS011;22294;52.044;4.582;2023-02-28T05:42:25;8.55;;;6.10;;
36257;SDS011;22294;52.044;4.582;2023-02-28T05:44:50;13.45;;;5.88;;
36257;SDS011;22294;52.044;4.582;2023-02-28T05:47:16;9.18;;;6.10;;
36257;SDS011;22294;52.044;4.582;2023-02-28T05:49:42;11.45;;;5.75;;
36257;SDS011;22294;52.044;4.582;2023-02-28T05:52:07;11.15;;;6.25;;
36257;SDS011;22294;52.044;4.582;2023-02-28T05:54:33;12.13;;;5.90;;
36257;SDS011;22294;52.044;4.582;2023-02-28T05:56:58;9.38;;;6.03;;
36257;SDS011;22294;52.044;4.582;2023-02-28T05:59:23;9.43;;;5.68;;
36257;SDS011;22294;52.044;4.582;2023-02-28T06:01:49;11.25;;;6.43;;
36257;SDS011;22294;52.044;4.582;2023-02-28T06:04:14;10.07;;;6.78;;
36257;SDS011;22294;52.044;4.582;2023-02-28T06:06:47;10.20;;;6.78;;
36257;SDS011;22294;52.044;4.582;2023-02-28T06:09:13;8.27;;;6.50;;
36257;SDS011;22294;52.044;4.582;2023-02-28T06:11:39;12.52;;;6.72;;
36257;SDS011;22294;52.044;4.582;2023-02-28T06:14:04;10.30;;;7.22;;
36257;SDS011;22294;52.044;4.582;2023-02-28T06:16:37;12.15;;;7.25;;
36257;SDS011;22294;52.044;4.582;2023-02-28T06:19:03;12.05;;;5.90;;
36257;SDS011;22294;52.044;4.582;2023-02-28T06:21:29;9.73;;;6.25;;
36257;SDS011;22294;52.044;4.582;2023-02-28T06:23:55;8.30;;;6.28;;
36257;SDS011;22294;52.044;4.582;2023-02-28T06:26:21;9.18;;;6.10;;
36257;SDS011;22294;52.044;4.582;2023-02-28T06:28:47;10.63;;;6.63;;
36257;SDS011;22294;52.044;4.582;2023-02-28T06:31:13;10.30;;;5.50;;
36257;SDS011;22294;52.044;4.582;2023-02-28T06:33:40;8.77;;;5.05;;
36257;SDS011;22294;52.044;4.582;2023-02-28T06:36:07;6.85;;;4.53;;
36257;SDS011;22294;52.044;4.582;2023-02-28T06:38:33;9.98;;;4.80;;
36257;SDS011;22294;52.044;4.582;2023-02-28T06:40:59;5.47;;;3.80;;
36257;SDS011;22294;52.044;4.582;2023-02-28T06:43:27;8.32;;;3.97;;
36257;SDS011;22294;52.044;4.582;2023-02-28T06:45:55;9.32;;;4.30;;
36257;SDS011;22294;52.044;4.582;2023-02-28T06:48:22;6.30;;;3.40;;
36257;SDS011;22294;52.044;4.582;2023-02-28T06:50:47;5.45;;;3.80;;
36257;SDS011;22294;52.044;4.582;2023-02-28T06:53:13;5.78;;;3.88;;
36257;SDS011;22294;52.044;4.582;2023-02-28T06:55:38;3.88;;;3.20;;
36257;SDS011;22294;52.044;4.582;2023-02-28T06:58:04;5.90;;;3.90;;
36257;SDS011;22294;52.044;4.582;2023-02-28T07:00:39;5.18;;;3.97;;
36257;SDS011;22294;52.044;4.582;2023-02-28T07:03:07;5.05;;;3.40;;
36257;SDS011;22294;52.044;4.582;2023-02-28T07:05:34;5.97;;;3.60;;
36257;SDS011;22294;52.044;4.582;2023-02-28T07:08:00;5.75;;;3.72;;
36257;SDS011;22294;52.044;4.582;2023-02-28T07:10:25;5.97;;;3.33;;
36257;SDS011;22294;52.044;4.582;2023-02-28T07:12:51;5.43;;;3.33;;
36257;SDS011;22294;52.044;4.582;2023-02-28T07:15:16;5.75;;;3.58;;
36257;SDS011;22294;52.044;4.582;2023-02-28T07:17:41;4.78;;;3.25;;
36257;SDS011;22294;52.044;4.582;2023-02-28T07:20:07;7.35;;;4.03;;
36257;SDS011;22294;52.044;4.582;2023-02-28T07:22:33;7.05;;;4.03;;
36257;SDS011;22294;52.044;4.582;2023-02-28T07:24:59;6.22;;;4.28;;
36257;SDS011;22294;52.044;4.582;2023-02-28T07:27:24;5.38;;;3.80;;
36257;SDS011;22294;52.044;4.582;2023-02-28T07:29:50;7.38;;;3.97;;
36257;SDS011;22294;52.044;4.582;2023-02-28T07:32:16;8.77;;;4.35;;
36257;SDS011;22294;52.044;4.582;2023-02-28T07:34:41;6.05;;;3.88;;
36257;SDS011;22294;52.044;4.582;2023-02-28T07:37:06;7.15;;;4.45;;
36257;SDS011;22294;52.044;4.582;2023-02-28T07:39:32;9.23;;;4.13;;
36257;SDS011;22294;52.044;4.582;2023-02-28T07:41:57;7.78;;;4.30;;
36257;SDS011;22294;52.044;4.582;2023-02-28T07:44:24;6.03;;;4.35;;
36257;SDS011;22294;52.044;4.582;2023-02-28T07:46:50;6.22;;;4.80;;
36257;SDS011;22294;52.044;4.582;2023-02-28T07:49:15;6.68;;;4.30;;
36257;SDS011;22294;52.044;4.582;2023-02-28T07:51:40;6.38;;;3.80;;
36257;SDS011;22294;52.044;4.582;2023-02-28T07:54:06;9.30;;;4.20;;
36257;SDS011;22294;52.044;4.582;2023-02-28T07:56:32;5.82;;;4.10;;
36257;SDS011;22294;52.044;4.582;2023-02-28T07:58:59;6.72;;;3.70;;
36257;SDS011;22294;52.044;4.582;2023-02-28T08:01:27;7.15;;;4.20;;
36257;SDS011;22294;52.044;4.582;2023-02-28T08:03:53;5.53;;;4.32;;
36257;SDS011;22294;52.044;4.582;2023-02-28T08:06:21;5.38;;;4.18;;
36257;SDS011;22294;52.044;4.582;2023-02-28T08:08:47;9.68;;;5.53;;
36257;SDS011;22294;52.044;4.582;2023-02-28T08:11:14;7.63;;;5.05;;
36257;SDS011;22294;52.044;4.582;2023-02-28T08:13:40;6.65;;;5.00;;
36257;SDS011;22294;52.044;4.582;2023-02-28T08:16:07;8.35;;;4.90;;
36257;SDS011;22294;52.044;4.582;2023-02-28T08:18:32;9.02;;;5.07;;
36257;SDS011;22294;52.044;4.582;2023-02-28T08:20:58;8.07;;;5.50;;
36257;SDS011;22294;52.044;4.582;2023-02-28T08:23:24;9.93;;;5.93;;
36257;SDS011;22294;52.044;4.582;2023-02-28T08:25:53;6.95;;;5.38;;
36257;SDS011;22294;52.044;4.582;2023-02-28T08:28:20;7.10;;;5.22;;
36257;SDS011;22294;52.044;4.582;2023-02-28T08:30:45;8.18;;;5.57;;
36257;SDS011;22294;52.044;4.582;2023-02-28T08:33:11;10.25;;;6.03;;
36257;SDS011;22294;52.044;4.582;2023-02-28T08:35:36;6.35;;;5.38;;
36257;SDS011;22294;52.044;4.582;2023-02-28T08:38:02;7.85;;;5.72;;
36257;SDS011;22294;52.044;4.582;2023-02-28T08:40:27;9.85;;;5.55;;
36257;SDS011;22294;52.044;4.582;2023-02-28T08:42:53;8.88;;;5.82;;
36257;SDS011;22294;52.044;4.582;2023-02-28T08:45:18;7.63;;;5.32;;
36257;SDS011;22294;52.044;4.582;2023-02-28T08:47:43;7.72;;;5.43;;
36257;SDS011;22294;52.044;4.582;2023-02-28T08:50:09;8.60;;;6.03;;
36257;SDS011;22294;52.044;4.582;2023-02-28T08:52:34;7.32;;;6.45;;
36257;SDS011;22294;52.044;4.582;2023-02-28T08:54:59;8.05;;;6.43;;
36257;SDS011;22294;52.044;4.582;2023-02-28T08:57:25;9.88;;;7.28;;
36257;SDS011;22294;52.044;4.582;2023-02-28T08:59:53;13.68;;;7.07;;
36257;SDS011;22294;52.044;4.582;2023-02-28T09:02:18;7.93;;;6.45;;
36257;SDS011;22294;52.044;4.582;2023-02-28T09:04:44;8.07;;;5.65;;
36257;SDS011;22294;52.044;4.582;2023-02-28T09:07:12;7.32;;;5.75;;
36257;SDS011;22294;52.044;4.582;2023-02-28T09:09:38;7.15;;;5.57;;
36257;SDS011;22294;52.044;4.582;2023-02-28T09:14:43;7.57;;;5.53;;
36257;SDS011;22294;52.044;4.582;2023-02-28T09:17:09;7.22;;;5.10;;
36257;SDS011;22294;52.044;4.582;2023-02-28T09:19:34;6.78;;;5.07;;
36257;SDS011;22294;52.044;4.582;2023-02-28T09:21:59;6.30;;;4.82;;
36257;SDS011;22294;52.044;4.582;2023-02-28T09:24:24;8.95;;;6.38;;
36257;SDS011;22294;52.044;4.582;2023-02-28T09:26:50;5.47;;;4.55;;
36257;SDS011;22294;52.044;4.582;2023-02-28T09:29:15;8.40;;;4.88;;
36257;SDS011;22294;52.044;4.582;2023-02-28T09:31:42;7.82;;;4.82;;
36257;SDS011;22294;52.044;4.582;2023-02-28T09:34:07;6.30;;;5.30;;
36257;SDS011;22294;52.044;4.582;2023-02-28T09:36:32;8.00;;;5.05;;
36257;SDS011;22294;52.044;4.582;2023-02-28T09:38:59;7.53;;;5.50;;
36257;SDS011;22294;52.044;4.582;2023-02-28T09:41:25;7.63;;;5.93;;
36257;SDS011;22294;52.044;4.582;2023-02-28T09:43:56;5.57;;;4.90;;
36257;SDS011;22294;52.044;4.582;2023-02-28T09:49:04;7.75;;;5.15;;
36257;SDS011;22294;52.044;4.582;2023-02-28T09:54:19;7.97;;;5.90;;
36257;SDS011;22294;52.044;4.582;2023-02-28T09:56:50;7.25;;;5.85;;
36257;SDS011;22294;52.044;4.582;2023-02-28T10:04:58;10.20;;;6.75;;
36257;SDS011;22294;52.044;4.582;2023-02-28T10:07:37;11.65;;;7.32;;
36257;SDS011;22294;52.044;4.582;2023-02-28T10:12:45;10.63;;;6.13;;
36257;SDS011;22294;52.044;4.582;2023-02-28T10:15:15;7.60;;;5.43;;
36257;SDS011;22294;52.044;4.582;2023-02-28T10:17:42;8.63;;;5.03;;
36257;SDS011;22294;52.044;4.582;2023-02-28T10:20:13;7.60;;;4.90;;
36257;SDS011;22294;52.044;4.582;2023-02-28T10:22:50;8.25;;;4.60;;
36257;SDS011;22294;52.044;4.582;2023-02-28T10:25:23;9.75;;;4.70;;
36257;SDS011;22294;52.044;4.582;2023-02-28T10:27:54;9.93;;;5.18;;
36257;SDS011;22294;52.044;4.582;2023-02-28T10:30:33;6.15;;;4.07;;
36257;SDS011;22294;52.044;4.582;2023-02-28T10:32:59;5.43;;;3.72;;
36257;SDS011;22294;52.044;4.582;2023-02-28T10:35:25;5.85;;;3.70;;
36257;SDS011;22294;52.044;4.582;2023-02-28T10:37:57;6.47;;;3.70;;
36257;SDS011;22294;52.044;4.582;2023-02-28T10:40:30;4.38;;;3.05;;
36257;SDS011;22294;52.044;4.582;2023-02-28T10:42:59;4.00;;;3.40;;
36257;SDS011;22294;52.044;4.582;2023-02-28T10:45:31;3.55;;;3.03;;
36257;SDS011;22294;52.044;4.582;2023-02-28T10:48:01;6.88;;;3.90;;
36257;SDS011;22294;52.044;4.582;2023-02-28T10:50:37;7.32;;;4.00;;
36257;SDS011;22294;52.044;4.582;2023-02-28T10:55:44;7.28;;;3.45;;
36257;SDS011;22294;52.044;4.582;2023-02-28T10:58:21;6.65;;;3.85;;
36257;SDS011;22294;52.044;4.582;2023-02-28T11:00:47;5.95;;;3.00;;
36257;SDS011;22294;52.044;4.582;2023-02-28T11:03:24;5.35;;;3.45;;
36257;SDS011;22294;52.044;4.582;2023-02-28T11:05:55;7.78;;;4.10;;
36257;SDS011;22294;52.044;4.582;2023-02-28T11:08:21;4.53;;;2.80;;
36257;SDS011;22294;52.044;4.582;2023-02-28T11:10:57;5.55;;;3.03;;
36257;SDS011;22294;52.044;4.582;2023-02-28T11:13:30;6.10;;;3.05;;
36257;SDS011;22294;52.044;4.582;2023-02-28T11:15:59;5.10;;;3.22;;
36257;SDS011;22294;52.044;4.582;2023-02-28T11:23:54;4.07;;;2.95;;
36257;SDS011;22294;52.044;4.582;2023-02-28T11:26:44;6.50;;;3.40;;
36257;SDS011;22294;52.044;4.582;2023-02-28T11:34:30;4.38;;;2.63;;
36257;SDS011;22294;52.044;4.582;2023-02-28T11:36:57;5.50;;;2.70;;
36257;SDS011;22294;52.044;4.582;2023-02-28T11:39:24;3.58;;;2.60;;
36257;SDS011;22294;52.044;4.582;2023-02-28T11:42:12;3.72;;;2.40;;
36257;SDS011;22294;52.044;4.582;2023-02-28T11:45:01;5.18;;;2.25;;
36257;SDS011;22294;52.044;4.582;2023-02-28T11:48:04;2.55;;;2.30;;
36257;SDS011;22294;52.044;4.582;2023-02-28T11:53:49;2.45;;;2.10;;
36257;SDS011;22294;52.044;4.582;2023-02-28T11:59:01;4.55;;;2.00;;
36257;SDS011;22294;52.044;4.582;2023-02-28T12:04:25;2.03;;;1.73;;
36257;SDS011;22294;52.044;4.582;2023-02-28T12:06:54;3.67;;;2.10;;
36257;SDS011;22294;52.044;4.582;2023-02-28T12:12:27;3.50;;;2.35;;
36257;SDS011;22294;52.044;4.582;2023-02-28T12:18:51;3.95;;;2.00;;
36257;SDS011;22294;52.044;4.582;2023-02-28T12:21:37;2.75;;;2.05;;
36257;SDS011;22294;52.044;4.582;2023-02-28T12:24:34;4.07;;;2.83;;
36257;SDS011;22294;52.044;4.582;2023-02-28T12:27:05;2.13;;;1.77;;
36257;SDS011;22294;52.044;4.582;2023-02-28T12:29:41;3.35;;;2.13;;
36257;SDS011;22294;52.044;4.582;2023-02-28T12:32:13;3.20;;;2.17;;
36257;SDS011;22294;52.044;4.582;2023-02-28T12:34:44;2.05;;;1.85;;
36257;SDS011;22294;52.044;4.582;2023-02-28T12:37:15;3.97;;;2.00;;
36257;SDS011;22294;52.044;4.582;2023-02-28T12:39:48;4.60;;;2.35;;
36257;SDS011;22294;52.044;4.582;2023-02-28T12:42:24;2.35;;;2.10;;
36257;SDS011;22294;52.044;4.582;2023-02-28T12:45:01;3.00;;;2.10;;
36257;SDS011;22294;52.044;4.582;2023-02-28T12:47:32;3.40;;;2.20;;
36257;SDS011;22294;52.044;4.582;2023-02-28T12:50:07;2.70;;;2.05;;
36257;SDS011;22294;52.044;4.582;2023-02-28T12:55:25;2.92;;;2.13;;
36257;SDS011;22294;52.044;4.582;2023-02-28T13:03:33;2.97;;;2.08;;
36257;SDS011;22294;52.044;4.582;2023-02-28T13:06:41;3.00;;;2.05;;
36257;SDS011;22294;52.044;4.582;2023-02-28T13:09:31;3.63;;;2.17;;
36257;SDS011;22294;52.044;4.582;2023-02-28T13:11:56;3.95;;;2.38;;
36257;SDS011;22294;52.044;4.582;2023-02-28T13:16:56;3.38;;;2.42;;
36257;SDS011;22294;52.044;4.582;2023-02-28T13:19:25;3.20;;;2.15;;
36257;SDS011;22294;52.044;4.582;2023-02-28T13:21:53;3.97;;;2.40;;
36257;SDS011;22294;52.044;4.582;2023-02-28T13:24:39;4.25;;;2.30;;
36257;SDS011;22294;52.044;4.582;2023-02-28T13:29:35;5.57;;;2.13;;
36257;SDS011;22294;52.044;4.582;2023-02-28T13:34:37;5.00;;;2.20;;
36257;SDS011;22294;52.044;4.582;2023-02-28T13:53:14;3.40;;;2.42;;
36257;SDS011;22294;52.044;4.582;2023-02-28T14:06:48;4.43;;;2.42;;
36257;SDS011;22294;52.044;4.582;2023-02-28T14:12:50;4.25;;;2.50;;
36257;SDS011;22294;52.044;4.582;2023-02-28T14:15:04;2.75;;;2.33;;
36257;SDS011;22294;52.044;4.582;2023-02-28T14:17:53;4.43;;;2.45;;
36257;SDS011;22294;52.044;4.582;2023-02-28T14:20:25;2.38;;;2.00;;
36257;SDS011;22294;52.044;4.582;2023-02-28T14:30:51;2.28;;;2.08;;
36257;SDS011;22294;52.044;4.582;2023-02-28T14:41:21;3.60;;;1.95;;
36257;SDS011;22294;52.044;4.582;2023-02-28T14:43:51;2.45;;;1.85;;
36257;SDS011;22294;52.044;4.582;2023-02-28T14:46:22;4.18;;;2.25;;
36257;SDS011;22294;52.044;4.582;2023-02-28T14:48:51;2.65;;;1.92;;
36257;SDS011;22294;52.044;4.582;2023-02-28T14:51:21;4.13;;;1.90;;
36257;SDS011;22294;52.044;4.582;2023-02-28T14:53:49;4.32;;;1.90;;
36257;SDS011;22294;52.044;4.582;2023-02-28T14:56:19;2.73;;;2.10;;
36257;SDS011;22294;52.044;4.582;2023-02-28T14:58:50;2.07;;;1.80;;
36257;SDS011;22294;52.044;4.582;2023-02-28T15:01:18;2.67;;;2.20;;
36257;SDS011;22294;52.044;4.582;2023-02-28T15:03:46;2.28;;;1.73;;
36257;SDS011;22294;52.044;4.582;2023-02-28T15:06:13;2.20;;;1.70;;
36257;SDS011;22294;52.044;4.582;2023-02-28T15:08:42;5.10;;;2.72;;
36257;SDS011;22294;52.044;4.582;2023-02-28T15:11:08;3.10;;;1.85;;
36257;SDS011;22294;52.044;4.582;2023-02-28T15:13:40;5.03;;;1.70;;
36257;SDS011;22294;52.044;4.582;2023-02-28T15:16:12;3.33;;;1.73;;
36257;SDS011;22294;52.044;4.582;2023-02-28T15:21:18;1.92;;;1.75;;
36257;SDS011;22294;52.044;4.582;2023-02-28T15:23:57;2.67;;;2.13;;
36257;SDS011;22294;52.044;4.582;2023-02-28T15:26:39;2.22;;;1.88;;
36257;SDS011;22294;52.044;4.582;2023-02-28T15:29:17;2.65;;;2.00;;
36257;SDS011;22294;52.044;4.582;2023-02-28T15:31:46;2.45;;;1.88;;
36257;SDS011;22294;52.044;4.582;2023-02-28T15:34:19;3.00;;;2.03;;
36257;SDS011;22294;52.044;4.582;2023-02-28T15:36:47;4.53;;;2.17;;
36257;SDS011;22294;52.044;4.582;2023-02-28T15:39:46;4.65;;;2.13;;
36257;SDS011;22294;52.044;4.582;2023-02-28T15:42:11;3.38;;;2.55;;
36257;SDS011;22294;52.044;4.582;2023-02-28T15:44:38;4.35;;;2.83;;
36257;SDS011;22294;52.044;4.582;2023-02-28T15:49:49;3.38;;;2.70;;
36257;SDS011;22294;52.044;4.582;2023-02-28T15:52:39;3.35;;;2.67;;
36257;SDS011;22294;52.044;4.582;2023-02-28T15:55:11;5.43;;;2.83;;
36257;SDS011;22294;52.044;4.582;2023-02-28T16:00:04;6.18;;;3.00;;
36257;SDS011;22294;52.044;4.582;2023-02-28T16:02:35;3.78;;;3.08;;
36257;SDS011;22294;52.044;4.582;2023-02-28T16:07:36;4.88;;;2.47;;
36257;SDS011;22294;52.044;4.582;2023-02-28T16:10:04;4.13;;;2.80;;
36257;SDS011;22294;52.044;4.582;2023-02-28T16:12:31;5.57;;;2.88;;
36257;SDS011;22294;52.044;4.582;2023-02-28T16:14:59;3.65;;;2.80;;
36257;SDS011;22294;52.044;4.582;2023-02-28T16:17:29;4.15;;;2.95;;
36257;SDS011;22294;52.044;4.582;2023-02-28T16:19:57;6.82;;;2.80;;
36257;SDS011;22294;52.044;4.582;2023-02-28T16:22:23;3.08;;;2.78;;
36257;SDS011;22294;52.044;4.582;2023-02-28T16:24:48;4.57;;;2.95;;
36257;SDS011;22294;52.044;4.582;2023-02-28T16:27:21;6.00;;;2.92;;
36257;SDS011;22294;52.044;4.582;2023-02-28T16:29:52;3.88;;;2.78;;
36257;SDS011;22294;52.044;4.582;2023-02-28T16:32:18;6.25;;;3.13;;
36257;SDS011;22294;52.044;4.582;2023-02-28T16:34:43;3.10;;;2.70;;
36257;SDS011;22294;52.044;4.582;2023-02-28T16:37:13;3.95;;;3.10;;
36257;SDS011;22294;52.044;4.582;2023-02-28T16:42:05;6.40;;;2.88;;
36257;SDS011;22294;52.044;4.582;2023-02-28T16:44:32;4.07;;;2.85;;
36257;SDS011;22294;52.044;4.582;2023-02-28T16:47:00;6.18;;;3.00;;
36257;SDS011;22294;52.044;4.582;2023-02-28T16:49:26;4.95;;;2.80;;
36257;SDS011;22294;52.044;4.582;2023-02-28T16:51:52;3.65;;;2.92;;
36257;SDS011;22294;52.044;4.582;2023-02-28T16:54:18;4.85;;;3.22;;
36257;SDS011;22294;52.044;4.582;2023-02-28T16:56:44;5.60;;;3.00;;
36257;SDS011;22294;52.044;4.582;2023-02-28T16:59:10;4.25;;;2.90;;
36257;SDS011;22294;52.044;4.582;2023-02-28T17:01:37;5.07;;;3.00;;
36257;SDS011;22294;52.044;4.582;2023-02-28T17:04:02;4.35;;;3.05;;
36257;SDS011;22294;52.044;4.582;2023-02-28T17:06:28;6.95;;;3.10;;
36257;SDS011;22294;52.044;4.582;2023-02-28T17:08:57;7.18;;;3.60;;
36257;SDS011;22294;52.044;4.582;2023-02-28T17:11:26;5.65;;;3.30;;
36257;SDS011;22294;52.044;4.582;2023-02-28T17:13:51;4.70;;;2.97;;
36257;SDS011;22294;52.044;4.582;2023-02-28T17:16:25;5.18;;;3.22;;
36257;SDS011;22294;52.044;4.582;2023-02-28T17:18:57;6.60;;;3.58;;
36257;SDS011;22294;52.044;4.582;2023-02-28T17:21:25;8.45;;;3.50;;
36257;SDS011;22294;52.044;4.582;2023-02-28T17:23:51;5.30;;;2.90;;
36257;SDS011;22294;52.044;4.582;2023-02-28T17:26:17;6.82;;;3.25;;
36257;SDS011;22294;52.044;4.582;2023-02-28T17:28:47;3.92;;;3.10;;